sensor_id;sensor_type;location;lat;lon;timestamp;temperature;humidity
18880;DHT22;9572;52.378;13.404;2024-03-08T00:01:15;0.80;99.90
18880;DHT22;9572;52.378;13.404;2024-03-08T00:03:46;0.80;99.90
18880;DHT22;9572;52.378;13.404;2024-03-08T00:06:12;0.80;99.90
18880;DHT22;9572;52.378;13.404;2024-03-08T00:08:39;0.80;99.90
18880;DHT22;9572;52.378;13.404;2024-03-08T00:11:06;0.80;99.90
18880;DHT22;9572;52.378;13.404;2024-03-08T00:13:33;0.70;99.90
18880;DHT22;9572;52.378;13.404;2024-03-08T00:16:00;0.70;99.90
18880;DHT22;9572;52.378;13.404;2024-03-08T00:18:27;0.60;99.90
18880;DHT22;9572;52.378;13.404;2024-03-08T00:20:55;0.60;99.90
18880;DHT22;9572;52.378;13.404;2024-03-08T00:23:22;0.60;99.90
18880;DHT22;9572;52.378;13.404;2024-03-08T00:25:49;0.50;99.90
18880;DHT22;9572;52.378;13.404;2024-03-08T00:28:16;0.50;99.90
18880;DHT22;9572;52.378;13.404;2024-03-08T00:30:44;0.50;99.90
18880;DHT22;9572;52.378;13.404;2024-03-08T00:33:12;0.40;99.90
18880;DHT22;9572;52.378;13.404;2024-03-08T00:35:38;0.40;99.90
18880;DHT22;9572;52.378;13.404;2024-03-08T00:38:06;0.40;99.90
18880;DHT22;9572;52.378;13.404;2024-03-08T00:40:33;0.40;99.90
18880;DHT22;9572;52.378;13.404;2024-03-08T00:43:00;0.30;99.90
18880;DHT22;9572;52.378;13.404;2024-03-08T00:45:29;0.20;99.90
18880;DHT22;9572;52.378;13.404;2024-03-08T00:47:56;0.20;99.90
18880;DHT22;9572;52.378;13.404;2024-03-08T00:50:22;0.20;99.90
18880;DHT22;9572;52.378;13.404;2024-03-08T00:52:49;0.20;99.90
18880;DHT22;9572;52.378;13.404;2024-03-08T00:55:17;0.30;99.90
18880;DHT22;9572;52.378;13.404;2024-03-08T00:57:44;0.30;99.90
18880;DHT22;9572;52.378;13.404;2024-03-08T01:00:12;0.30;99.90
18880;DHT22;9572;52.378;13.404;2024-03-08T01:02:39;0.30;99.90
18880;DHT22;9572;52.378;13.404;2024-03-08T01:05:06;0.40;99.90
18880;DHT22;9572;52.378;13.404;2024-03-08T01:07:34;0.30;99.90
18880;DHT22;9572;52.378;13.404;2024-03-08T01:10:01;0.30;99.90
18880;DHT22;9572;52.378;13.404;2024-03-08T01:12:29;0.20;99.90
18880;DHT22;9572;52.378;13.404;2024-03-08T01:14:56;0.10;99.90
18880;DHT22;9572;52.378;13.404;2024-03-08T01:17:23;0.00;99.90
18880;DHT22;9572;52.378;13.404;2024-03-08T01:19:50;0.00;99.90
18880;DHT22;9572;52.378;13.404;2024-03-08T01:22:17;-0.10;99.90
18880;DHT22;9572;52.378;13.404;2024-03-08T01:24:44;0.00;99.90
18880;DHT22;9572;52.378;13.404;2024-03-08T01:27:11;0.00;99.90
18880;DHT22;9572;52.378;13.404;2024-03-08T01:29:39;0.10;99.90
18880;DHT22;9572;52.378;13.404;2024-03-08T01:32:06;0.20;99.90
18880;DHT22;9572;52.378;13.404;2024-03-08T01:34:33;0.10;99.90
18880;DHT22;9572;52.378;13.404;2024-03-08T01:37:00;0.20;99.90
18880;DHT22;9572;52.378;13.404;2024-03-08T01:39:27;0.20;99.90
18880;DHT22;9572;52.378;13.404;2024-03-08T01:41:53;0.20;99.90
18880;DHT22;9572;52.378;13.404;2024-03-08T01:44:20;0.20;99.90
18880;DHT22;9572;52.378;13.404;2024-03-08T01:46:50;0.20;99.90
18880;DHT22;9572;52.378;13.404;2024-03-08T01:49:18;0.20;99.90
18880;DHT22;9572;52.378;13.404;2024-03-08T01:51:47;0.20;99.90
18880;DHT22;9572;52.378;13.404;2024-03-08T01:54:15;0.20;99.90
18880;DHT22;9572;52.378;13.404;2024-03-08T01:56:43;0.20;99.90
18880;DHT22;9572;52.378;13.404;2024-03-08T01:59:09;0.10;99.90
18880;DHT22;9572;52.378;13.404;2024-03-08T02:01:37;0.00;99.90
18880;DHT22;9572;52.378;13.404;2024-03-08T02:04:05;0.00;99.90
18880;DHT22;9572;52.378;13.404;2024-03-08T02:06:32;0.10;99.90
18880;DHT22;9572;52.378;13.404;2024-03-08T02:08:59;0.10;99.90
18880;DHT22;9572;52.378;13.404;2024-03-08T02:11:31;0.10;99.90
18880;DHT22;9572;52.378;13.404;2024-03-08T02:13:58;0.00;99.90
18880;DHT22;9572;52.378;13.404;2024-03-08T02:16:25;0.10;99.90
18880;DHT22;9572;52.378;13.404;2024-03-08T02:18:51;0.10;99.90
18880;DHT22;9572;52.378;13.404;2024-03-08T02:21:20;0.00;99.90
18880;DHT22;9572;52.378;13.404;2024-03-08T02:23:47;0.00;99.90
18880;DHT22;9572;52.378;13.404;2024-03-08T02:26:13;0.00;99.90
18880;DHT22;9572;52.378;13.404;2024-03-08T02:28:40;0.10;99.90
18880;DHT22;9572;52.378;13.404;2024-03-08T02:31:08;0.10;99.90
18880;DHT22;9572;52.378;13.404;2024-03-08T02:33:35;0.10;99.90
18880;DHT22;9572;52.378;13.404;2024-03-08T02:36:01;0.10;99.90
18880;DHT22;9572;52.378;13.404;2024-03-08T02:38:30;0.10;99.90
18880;DHT22;9572;52.378;13.404;2024-03-08T02:40:57;0.00;99.90
18880;DHT22;9572;52.378;13.404;2024-03-08T02:43:24;0.00;99.90
18880;DHT22;9572;52.378;13.404;2024-03-08T02:45:51;0.00;99.90
18880;DHT22;9572;52.378;13.404;2024-03-08T02:48:18;0.00;99.90
18880;DHT22;9572;52.378;13.404;2024-03-08T02:50:46;0.00;99.90
18880;DHT22;9572;52.378;13.404;2024-03-08T02:53:13;-0.10;99.90
18880;DHT22;9572;52.378;13.404;2024-03-08T02:55:42;-0.10;99.90
18880;DHT22;9572;52.378;13.404;2024-03-08T02:58:09;-0.10;99.90
18880;DHT22;9572;52.378;13.404;2024-03-08T03:00:36;-0.20;99.90
18880;DHT22;9572;52.378;13.404;2024-03-08T03:03:04;-0.10;99.90
18880;DHT22;9572;52.378;13.404;2024-03-08T03:05:32;-0.10;99.90
18880;DHT22;9572;52.378;13.404;2024-03-08T03:07:59;-0.20;99.90
18880;DHT22;9572;52.378;13.404;2024-03-08T03:10:26;-0.30;99.90
18880;DHT22;9572;52.378;13.404;2024-03-08T03:12:54;-0.20;99.90
18880;DHT22;9572;52.378;13.404;2024-03-08T03:15:20;-0.20;99.90
18880;DHT22;9572;52.378;13.404;2024-03-08T03:17:48;-0.20;99.90
18880;DHT22;9572;52.378;13.404;2024-03-08T03:20:17;-0.20;99.90
18880;DHT22;9572;52.378;13.404;2024-03-08T03:22:49;-0.20;99.90
18880;DHT22;9572;52.378;13.404;2024-03-08T03:25:18;-0.20;99.90
18880;DHT22;9572;52.378;13.404;2024-03-08T03:27:51;-0.20;99.90
18880;DHT22;9572;52.378;13.404;2024-03-08T03:30:19;-0.20;99.90
18880;DHT22;9572;52.378;13.404;2024-03-08T03:32:47;-0.20;99.90
18880;DHT22;9572;52.378;13.404;2024-03-08T03:35:15;-0.30;99.90
18880;DHT22;9572;52.378;13.404;2024-03-08T03:37:42;-0.20;99.90
18880;DHT22;9572;52.378;13.404;2024-03-08T03:40:12;-0.20;99.90
18880;DHT22;9572;52.378;13.404;2024-03-08T03:42:39;-0.30;99.90
18880;DHT22;9572;52.378;13.404;2024-03-08T03:45:06;-0.30;99.90
18880;DHT22;9572;52.378;13.404;2024-03-08T03:47:36;-0.30;99.90
18880;DHT22;9572;52.378;13.404;2024-03-08T03:50:05;-0.30;99.90
18880;DHT22;9572;52.378;13.404;2024-03-08T03:52:32;-0.20;99.90
18880;DHT22;9572;52.378;13.404;2024-03-08T03:54:58;-0.20;99.90
18880;DHT22;9572;52.378;13.404;2024-03-08T03:57:26;-0.20;99.90
18880;DHT22;9572;52.378;13.404;2024-03-08T03:59:53;-0.20;99.90
18880;DHT22;9572;52.378;13.404;2024-03-08T04:02:20;-0.20;99.90
18880;DHT22;9572;52.378;13.404;2024-03-08T04:04:48;-0.20;99.90
18880;DHT22;9572;52.378;13.404;2024-03-08T04:07:15;-0.20;99.90
18880;DHT22;9572;52.378;13.404;2024-03-08T04:09:42;-0.20;99.90
18880;DHT22;9572;52.378;13.404;2024-03-08T04:12:08;-0.30;99.90
18880;DHT22;9572;52.378;13.404;2024-03-08T04:14:35;-0.30;99.90
18880;DHT22;9572;52.378;13.404;2024-03-08T04:17:02;-0.30;99.90
18880;DHT22;9572;52.378;13.404;2024-03-08T04:19:29;-0.30;99.90
18880;DHT22;9572;52.378;13.404;2024-03-08T04:21:57;-0.30;99.90
18880;DHT22;9572;52.378;13.404;2024-03-08T04:24:24;-0.30;99.90
18880;DHT22;9572;52.378;13.404;2024-03-08T04:26:50;-0.30;99.90
18880;DHT22;9572;52.378;13.404;2024-03-08T04:29:17;-0.30;99.90
18880;DHT22;9572;52.378;13.404;2024-03-08T04:31:44;-0.30;99.90
18880;DHT22;9572;52.378;13.404;2024-03-08T04:34:11;-0.30;99.90
18880;DHT22;9572;52.378;13.404;2024-03-08T04:36:38;-0.30;99.90
18880;DHT22;9572;52.378;13.404;2024-03-08T04:39:06;-0.30;99.90
18880;DHT22;9572;52.378;13.404;2024-03-08T04:41:38;-0.40;99.90
18880;DHT22;9572;52.378;13.404;2024-03-08T04:44:05;-0.40;99.90
18880;DHT22;9572;52.378;13.404;2024-03-08T04:46:32;-0.50;99.90
18880;DHT22;9572;52.378;13.404;2024-03-08T04:49:00;-0.40;99.90
18880;DHT22;9572;52.378;13.404;2024-03-08T04:51:27;-0.40;99.90
18880;DHT22;9572;52.378;13.404;2024-03-08T04:53:54;-0.40;99.90
18880;DHT22;9572;52.378;13.404;2024-03-08T04:56:23;-0.40;99.90
18880;DHT22;9572;52.378;13.404;2024-03-08T04:58:51;-0.40;99.90
18880;DHT22;9572;52.378;13.404;2024-03-08T05:01:18;-0.40;99.90
18880;DHT22;9572;52.378;13.404;2024-03-08T05:03:45;-0.50;99.90
18880;DHT22;9572;52.378;13.404;2024-03-08T05:06:14;-0.50;99.90
18880;DHT22;9572;52.378;13.404;2024-03-08T05:08:40;-0.50;99.90
18880;DHT22;9572;52.378;13.404;2024-03-08T05:11:07;-0.60;99.90
18880;DHT22;9572;52.378;13.404;2024-03-08T05:13:36;-0.50;99.90
18880;DHT22;9572;52.378;13.404;2024-03-08T05:16:03;-0.50;99.90
18880;DHT22;9572;52.378;13.404;2024-03-08T05:18:30;-0.60;99.90
18880;DHT22;9572;52.378;13.404;2024-03-08T05:20:57;-0.60;99.90
18880;DHT22;9572;52.378;13.404;2024-03-08T05:23:24;-0.60;99.90
18880;DHT22;9572;52.378;13.404;2024-03-08T05:25:51;-0.70;99.90
18880;DHT22;9572;52.378;13.404;2024-03-08T05:28:17;-0.60;99.90
18880;DHT22;9572;52.378;13.404;2024-03-08T05:30:46;-0.60;99.90
18880;DHT22;9572;52.378;13.404;2024-03-08T05:33:13;-0.60;99.90
18880;DHT22;9572;52.378;13.404;2024-03-08T05:35:40;-0.60;99.90
18880;DHT22;9572;52.378;13.404;2024-03-08T05:38:07;-0.50;99.90
18880;DHT22;9572;52.378;13.404;2024-03-08T05:40:33;-0.50;99.90
18880;DHT22;9572;52.378;13.404;2024-03-08T05:43:00;-0.60;99.90
18880;DHT22;9572;52.378;13.404;2024-03-08T05:45:27;-0.60;99.90
18880;DHT22;9572;52.378;13.404;2024-03-08T05:47:55;-0.50;99.90
18880;DHT22;9572;52.378;13.404;2024-03-08T05:50:22;-0.50;99.90
18880;DHT22;9572;52.378;13.404;2024-03-08T05:52:48;-0.50;99.90
18880;DHT22;9572;52.378;13.404;2024-03-08T05:55:15;-0.50;99.90
18880;DHT22;9572;52.378;13.404;2024-03-08T05:57:42;-0.50;99.90
18880;DHT22;9572;52.378;13.404;2024-03-08T06:00:10;-0.50;99.90
18880;DHT22;9572;52.378;13.404;2024-03-08T06:02:37;-0.40;99.90
18880;DHT22;9572;52.378;13.404;2024-03-08T06:05:08;-0.40;99.90
18880;DHT22;9572;52.378;13.404;2024-03-08T06:07:36;-0.40;99.90
18880;DHT22;9572;52.378;13.404;2024-03-08T06:10:07;-0.40;99.90
18880;DHT22;9572;52.378;13.404;2024-03-08T06:12:35;-0.40;99.90
18880;DHT22;9572;52.378;13.404;2024-03-08T06:15:06;-0.30;99.90
18880;DHT22;9572;52.378;13.404;2024-03-08T06:17:33;-0.30;99.90
18880;DHT22;9572;52.378;13.404;2024-03-08T06:20:00;-0.30;99.90
18880;DHT22;9572;52.378;13.404;2024-03-08T06:22:28;-0.20;99.90
18880;DHT22;9572;52.378;13.404;2024-03-08T06:24:56;-0.10;99.90
18880;DHT22;9572;52.378;13.404;2024-03-08T06:27:22;0.10;99.90
18880;DHT22;9572;52.378;13.404;2024-03-08T06:29:49;0.10;99.90
18880;DHT22;9572;52.378;13.404;2024-03-08T06:32:16;0.10;99.90
18880;DHT22;9572;52.378;13.404;2024-03-08T06:34:44;0.30;99.90
18880;DHT22;9572;52.378;13.404;2024-03-08T06:37:11;0.40;99.90
18880;DHT22;9572;52.378;13.404;2024-03-08T06:39:39;0.40;99.90
18880;DHT22;9572;52.378;13.404;2024-03-08T06:42:06;0.50;99.90
18880;DHT22;9572;52.378;13.404;2024-03-08T06:44:34;0.50;99.90
18880;DHT22;9572;52.378;13.404;2024-03-08T06:47:01;0.60;99.90
18880;DHT22;9572;52.378;13.404;2024-03-08T06:49:28;0.60;99.90
18880;DHT22;9572;52.378;13.404;2024-03-08T06:51:55;0.60;99.90
18880;DHT22;9572;52.378;13.404;2024-03-08T06:54:22;0.70;99.90
18880;DHT22;9572;52.378;13.404;2024-03-08T06:56:51;0.70;99.90
18880;DHT22;9572;52.378;13.404;2024-03-08T06:59:18;0.90;99.90
18880;DHT22;9572;52.378;13.404;2024-03-08T07:01:45;1.10;99.90
18880;DHT22;9572;52.378;13.404;2024-03-08T07:04:12;1.30;99.90
18880;DHT22;9572;52.378;13.404;2024-03-08T07:06:38;1.50;99.90
18880;DHT22;9572;52.378;13.404;2024-03-08T07:09:06;1.80;99.90
18880;DHT22;9572;52.378;13.404;2024-03-08T07:11:33;2.00;99.90
18880;DHT22;9572;52.378;13.404;2024-03-08T07:14:01;2.00;99.90
18880;DHT22;9572;52.378;13.404;2024-03-08T07:16:31;2.00;99.90
18880;DHT22;9572;52.378;13.404;2024-03-08T07:18:57;2.20;99.90
18880;DHT22;9572;52.378;13.404;2024-03-08T07:21:24;2.40;99.90
18880;DHT22;9572;52.378;13.404;2024-03-08T07:23:51;2.70;99.90
18880;DHT22;9572;52.378;13.404;2024-03-08T07:26:38;3.10;99.90
18880;DHT22;9572;52.378;13.404;2024-03-08T07:29:07;3.60;99.90
18880;DHT22;9572;52.378;13.404;2024-03-08T07:31:33;3.90;99.90
18880;DHT22;9572;52.378;13.404;2024-03-08T07:34:10;4.00;99.90
18880;DHT22;9572;52.378;13.404;2024-03-08T07:36:38;4.20;99.90
18880;DHT22;9572;52.378;13.404;2024-03-08T07:39:04;4.00;99.90
18880;DHT22;9572;52.378;13.404;2024-03-08T07:41:37;3.60;99.90
18880;DHT22;9572;52.378;13.404;2024-03-08T07:44:06;3.40;99.90
18880;DHT22;9572;52.378;13.404;2024-03-08T07:46:33;3.20;99.90
18880;DHT22;9572;52.378;13.404;2024-03-08T07:49:00;3.20;99.90
18880;DHT22;9572;52.378;13.404;2024-03-08T07:51:27;3.10;99.90
18880;DHT22;9572;52.378;13.404;2024-03-08T07:53:53;3.10;99.90
18880;DHT22;9572;52.378;13.404;2024-03-08T07:56:21;3.10;99.90
18880;DHT22;9572;52.378;13.404;2024-03-08T07:58:47;3.20;99.90
18880;DHT22;9572;52.378;13.404;2024-03-08T08:01:19;3.60;99.90
18880;DHT22;9572;52.378;13.404;2024-03-08T08:03:46;3.70;99.90
18880;DHT22;9572;52.378;13.404;2024-03-08T08:06:15;3.70;99.90
18880;DHT22;9572;52.378;13.404;2024-03-08T08:08:42;3.60;99.90
18880;DHT22;9572;52.378;13.404;2024-03-08T08:11:09;3.60;99.90
18880;DHT22;9572;52.378;13.404;2024-03-08T08:13:37;3.70;99.90
18880;DHT22;9572;52.378;13.404;2024-03-08T08:16:04;3.70;99.90
18880;DHT22;9572;52.378;13.404;2024-03-08T08:18:33;3.80;99.90
18880;DHT22;9572;52.378;13.404;2024-03-08T08:21:01;3.80;99.90
18880;DHT22;9572;52.378;13.404;2024-03-08T08:23:28;3.70;99.90
18880;DHT22;9572;52.378;13.404;2024-03-08T08:25:55;3.70;99.90
18880;DHT22;9572;52.378;13.404;2024-03-08T08:28:22;3.70;99.90
18880;DHT22;9572;52.378;13.404;2024-03-08T08:30:50;3.80;99.90
18880;DHT22;9572;52.378;13.404;2024-03-08T08:33:17;3.80;99.90
18880;DHT22;9572;52.378;13.404;2024-03-08T08:35:45;3.90;99.90
18880;DHT22;9572;52.378;13.404;2024-03-08T08:38:13;3.90;99.90
18880;DHT22;9572;52.378;13.404;2024-03-08T08:40:40;4.00;99.90
18880;DHT22;9572;52.378;13.404;2024-03-08T08:43:06;4.00;99.90
18880;DHT22;9572;52.378;13.404;2024-03-08T08:45:34;4.00;99.90
18880;DHT22;9572;52.378;13.404;2024-03-08T08:48:01;4.00;99.90
18880;DHT22;9572;52.378;13.404;2024-03-08T08:50:28;4.10;99.90
18880;DHT22;9572;52.378;13.404;2024-03-08T08:52:56;4.20;99.90
18880;DHT22;9572;52.378;13.404;2024-03-08T08:55:24;4.30;99.90
18880;DHT22;9572;52.378;13.404;2024-03-08T08:57:51;4.40;99.90
18880;DHT22;9572;52.378;13.404;2024-03-08T09:00:18;4.40;99.90
18880;DHT22;9572;52.378;13.404;2024-03-08T09:02:46;4.50;99.90
18880;DHT22;9572;52.378;13.404;2024-03-08T09:05:13;4.60;99.90
18880;DHT22;9572;52.378;13.404;2024-03-08T09:07:42;4.70;99.90
18880;DHT22;9572;52.378;13.404;2024-03-08T09:10:11;4.80;99.90
18880;DHT22;9572;52.378;13.404;2024-03-08T09:12:39;4.90;99.90
18880;DHT22;9572;52.378;13.404;2024-03-08T09:15:07;5.00;99.90
18880;DHT22;9572;52.378;13.404;2024-03-08T09:17:36;5.00;99.90
18880;DHT22;9572;52.378;13.404;2024-03-08T09:20:06;5.00;99.90
18880;DHT22;9572;52.378;13.404;2024-03-08T09:22:32;5.00;99.90
18880;DHT22;9572;52.378;13.404;2024-03-08T09:24:59;5.20;99.90
18880;DHT22;9572;52.378;13.404;2024-03-08T09:27:27;5.10;99.90
18880;DHT22;9572;52.378;13.404;2024-03-08T09:29:55;5.20;99.90
18880;DHT22;9572;52.378;13.404;2024-03-08T09:32:22;5.20;99.90
18880;DHT22;9572;52.378;13.404;2024-03-08T09:34:49;5.30;99.90
18880;DHT22;9572;52.378;13.404;2024-03-08T09:37:15;5.30;99.90
18880;DHT22;9572;52.378;13.404;2024-03-08T09:39:43;5.40;99.90
18880;DHT22;9572;52.378;13.404;2024-03-08T09:42:10;5.50;99.90
18880;DHT22;9572;52.378;13.404;2024-03-08T09:44:44;5.60;99.90
18880;DHT22;9572;52.378;13.404;2024-03-08T09:47:13;5.70;99.90
18880;DHT22;9572;52.378;13.404;2024-03-08T09:49:40;5.70;99.90
18880;DHT22;9572;52.378;13.404;2024-03-08T09:52:09;5.70;99.90
18880;DHT22;9572;52.378;13.404;2024-03-08T09:54:37;5.80;99.90
18880;DHT22;9572;52.378;13.404;2024-03-08T09:57:04;5.80;99.90
18880;DHT22;9572;52.378;13.404;2024-03-08T09:59:33;5.90;99.90
18880;DHT22;9572;52.378;13.404;2024-03-08T10:02:15;5.90;99.90
18880;DHT22;9572;52.378;13.404;2024-03-08T10:04:43;6.00;99.90
18880;DHT22;9572;52.378;13.404;2024-03-08T10:07:12;6.00;99.90
18880;DHT22;9572;52.378;13.404;2024-03-08T10:09:39;6.00;99.90
18880;DHT22;9572;52.378;13.404;2024-03-08T10:12:09;6.00;99.90
18880;DHT22;9572;52.378;13.404;2024-03-08T10:14:39;6.10;99.90
18880;DHT22;9572;52.378;13.404;2024-03-08T10:17:06;6.30;99.90
18880;DHT22;9572;52.378;13.404;2024-03-08T10:19:35;6.30;99.90
18880;DHT22;9572;52.378;13.404;2024-03-08T10:22:01;6.20;99.90
18880;DHT22;9572;52.378;13.404;2024-03-08T10:24:31;6.30;99.90
18880;DHT22;9572;52.378;13.404;2024-03-08T10:26:59;6.30;99.90
18880;DHT22;9572;52.378;13.404;2024-03-08T10:29:27;6.30;99.90
18880;DHT22;9572;52.378;13.404;2024-03-08T10:31:54;6.40;99.90
18880;DHT22;9572;52.378;13.404;2024-03-08T10:34:22;6.80;99.90
18880;DHT22;9572;52.378;13.404;2024-03-08T10:36:51;7.60;99.90
18880;DHT22;9572;52.378;13.404;2024-03-08T10:39:22;8.70;99.90
18880;DHT22;9572;52.378;13.404;2024-03-08T10:41:53;9.70;99.90
18880;DHT22;9572;52.378;13.404;2024-03-08T10:44:30;9.80;99.90
18880;DHT22;9572;52.378;13.404;2024-03-08T10:47:01;9.90;99.90
18880;DHT22;9572;52.378;13.404;2024-03-08T10:49:32;10.20;99.90
18880;DHT22;9572;52.378;13.404;2024-03-08T10:52:03;10.40;99.90
18880;DHT22;9572;52.378;13.404;2024-03-08T10:54:31;10.50;99.90
18880;DHT22;9572;52.378;13.404;2024-03-08T10:56:59;10.50;99.90
18880;DHT22;9572;52.378;13.404;2024-03-08T10:59:26;10.40;99.90
18880;DHT22;9572;52.378;13.404;2024-03-08T11:01:54;10.00;99.90
18880;DHT22;9572;52.378;13.404;2024-03-08T11:04:20;9.60;99.90
18880;DHT22;9572;52.378;13.404;2024-03-08T11:06:50;9.10;99.90
18880;DHT22;9572;52.378;13.404;2024-03-08T11:09:29;8.80;99.90
18880;DHT22;9572;52.378;13.404;2024-03-08T11:12:18;8.50;99.90
18880;DHT22;9572;52.378;13.404;2024-03-08T11:14:46;8.10;99.90
18880;DHT22;9572;52.378;13.404;2024-03-08T11:17:15;7.90;99.90
18880;DHT22;9572;52.378;13.404;2024-03-08T11:19:46;7.90;99.90
18880;DHT22;9572;52.378;13.404;2024-03-08T11:22:21;7.90;99.90
18880;DHT22;9572;52.378;13.404;2024-03-08T11:24:51;7.80;99.90
18880;DHT22;9572;52.378;13.404;2024-03-08T11:27:18;7.80;99.90
18880;DHT22;9572;52.378;13.404;2024-03-08T11:29:59;7.70;99.90
18880;DHT22;9572;52.378;13.404;2024-03-08T11:32:35;7.60;99.90
18880;DHT22;9572;52.378;13.404;2024-03-08T11:35:03;7.70;99.90
18880;DHT22;9572;52.378;13.404;2024-03-08T11:37:34;7.80;99.90
18880;DHT22;9572;52.378;13.404;2024-03-08T11:40:11;7.80;99.90
18880;DHT22;9572;52.378;13.404;2024-03-08T11:42:40;7.80;99.90
18880;DHT22;9572;52.378;13.404;2024-03-08T11:45:08;7.80;99.90
18880;DHT22;9572;52.378;13.404;2024-03-08T11:47:36;7.80;99.90
18880;DHT22;9572;52.378;13.404;2024-03-08T11:50:06;7.90;99.90
18880;DHT22;9572;52.378;13.404;2024-03-08T11:52:36;7.90;99.90
18880;DHT22;9572;52.378;13.404;2024-03-08T11:55:05;8.00;99.90
18880;DHT22;9572;52.378;13.404;2024-03-08T11:57:32;8.00;99.90
18880;DHT22;9572;52.378;13.404;2024-03-08T11:59:59;8.00;99.90
18880;DHT22;9572;52.378;13.404;2024-03-08T12:02:32;8.00;99.90
18880;DHT22;9572;52.378;13.404;2024-03-08T12:05:01;8.20;99.90
18880;DHT22;9572;52.378;13.404;2024-03-08T12:07:29;8.20;99.90
18880;DHT22;9572;52.378;13.404;2024-03-08T12:10:19;8.30;99.90
18880;DHT22;9572;52.378;13.404;2024-03-08T12:12:48;8.20;99.90
18880;DHT22;9572;52.378;13.404;2024-03-08T12:15:17;8.30;99.90
18880;DHT22;9572;52.378;13.404;2024-03-08T12:17:44;8.40;99.90
18880;DHT22;9572;52.378;13.404;2024-03-08T12:20:15;8.40;99.90
18880;DHT22;9572;52.378;13.404;2024-03-08T12:22:42;8.50;99.90
18880;DHT22;9572;52.378;13.404;2024-03-08T12:25:11;8.50;99.90
18880;DHT22;9572;52.378;13.404;2024-03-08T12:27:39;8.60;99.90
18880;DHT22;9572;52.378;13.404;2024-03-08T12:30:20;8.60;99.90
18880;DHT22;9572;52.378;13.404;2024-03-08T12:32:55;8.60;99.90
18880;DHT22;9572;52.378;13.404;2024-03-08T12:35:24;8.80;99.90
18880;DHT22;9572;52.378;13.404;2024-03-08T12:37:52;8.70;99.90
18880;DHT22;9572;52.378;13.404;2024-03-08T12:40:19;8.80;99.90
18880;DHT22;9572;52.378;13.404;2024-03-08T12:42:54;8.80;99.90
18880;DHT22;9572;52.378;13.404;2024-03-08T12:45:21;8.80;99.90
18880;DHT22;9572;52.378;13.404;2024-03-08T12:47:49;8.70;99.90
18880;DHT22;9572;52.378;13.404;2024-03-08T12:50:16;8.60;99.90
18880;DHT22;9572;52.378;13.404;2024-03-08T12:52:43;8.60;99.90
18880;DHT22;9572;52.378;13.404;2024-03-08T12:55:10;8.70;99.90
18880;DHT22;9572;52.378;13.404;2024-03-08T12:57:38;8.80;99.90
18880;DHT22;9572;52.378;13.404;2024-03-08T13:00:07;8.70;99.90
18880;DHT22;9572;52.378;13.404;2024-03-08T13:02:39;8.70;99.90
18880;DHT22;9572;52.378;13.404;2024-03-08T13:05:06;8.70;99.90
18880;DHT22;9572;52.378;13.404;2024-03-08T13:07:35;8.80;99.90
18880;DHT22;9572;52.378;13.404;2024-03-08T13:10:03;9.00;99.90
18880;DHT22;9572;52.378;13.404;2024-03-08T13:12:30;9.10;99.90
18880;DHT22;9572;52.378;13.404;2024-03-08T13:14:57;9.40;99.90
18880;DHT22;9572;52.378;13.404;2024-03-08T13:17:25;9.60;99.90
18880;DHT22;9572;52.378;13.404;2024-03-08T13:19:52;9.80;99.90
18880;DHT22;9572;52.378;13.404;2024-03-08T13:22:22;10.00;99.90
18880;DHT22;9572;52.378;13.404;2024-03-08T13:24:50;10.20;99.90
18880;DHT22;9572;52.378;13.404;2024-03-08T13:27:17;10.30;99.90
18880;DHT22;9572;52.378;13.404;2024-03-08T13:29:46;10.50;99.90
18880;DHT22;9572;52.378;13.404;2024-03-08T13:32:14;10.40;99.90
18880;DHT22;9572;52.378;13.404;2024-03-08T13:34:43;10.40;99.90
18880;DHT22;9572;52.378;13.404;2024-03-08T13:37:11;10.20;99.90
18880;DHT22;9572;52.378;13.404;2024-03-08T13:39:38;10.30;99.90
18880;DHT22;9572;52.378;13.404;2024-03-08T13:42:10;10.40;99.90
18880;DHT22;9572;52.378;13.404;2024-03-08T13:44:39;10.50;99.90
18880;DHT22;9572;52.378;13.404;2024-03-08T13:47:06;10.30;99.90
18880;DHT22;9572;52.378;13.404;2024-03-08T13:49:33;10.20;99.90
18880;DHT22;9572;52.378;13.404;2024-03-08T13:52:01;10.20;99.90
18880;DHT22;9572;52.378;13.404;2024-03-08T13:54:28;10.10;99.90
18880;DHT22;9572;52.378;13.404;2024-03-08T13:56:57;10.10;99.90
18880;DHT22;9572;52.378;13.404;2024-03-08T13:59:23;10.30;99.90
18880;DHT22;9572;52.378;13.404;2024-03-08T14:01:55;10.30;99.90
18880;DHT22;9572;52.378;13.404;2024-03-08T14:04:21;10.30;99.90
18880;DHT22;9572;52.378;13.404;2024-03-08T14:06:49;10.20;99.90
18880;DHT22;9572;52.378;13.404;2024-03-08T14:09:18;10.30;99.90
18880;DHT22;9572;52.378;13.404;2024-03-08T14:11:45;10.30;99.90
18880;DHT22;9572;52.378;13.404;2024-03-08T14:14:12;10.30;99.90
18880;DHT22;9572;52.378;13.404;2024-03-08T14:16:38;10.40;99.90
18880;DHT22;9572;52.378;13.404;2024-03-08T14:19:05;10.50;99.90
18880;DHT22;9572;52.378;13.404;2024-03-08T14:21:33;10.40;99.90
18880;DHT22;9572;52.378;13.404;2024-03-08T14:23:59;10.20;99.90
18880;DHT22;9572;52.378;13.404;2024-03-08T14:26:28;10.10;99.90
18880;DHT22;9572;52.378;13.404;2024-03-08T14:28:54;10.10;99.90
18880;DHT22;9572;52.378;13.404;2024-03-08T14:31:22;10.30;99.90
18880;DHT22;9572;52.378;13.404;2024-03-08T14:33:51;10.30;99.90
18880;DHT22;9572;52.378;13.404;2024-03-08T14:36:18;10.30;99.90
18880;DHT22;9572;52.378;13.404;2024-03-08T14:38:45;10.40;99.90
18880;DHT22;9572;52.378;13.404;2024-03-08T14:41:12;10.40;99.90
18880;DHT22;9572;52.378;13.404;2024-03-08T14:43:42;10.50;99.90
18880;DHT22;9572;52.378;13.404;2024-03-08T14:46:10;10.60;99.90
18880;DHT22;9572;52.378;13.404;2024-03-08T14:48:39;10.80;99.90
18880;DHT22;9572;52.378;13.404;2024-03-08T14:51:06;10.80;99.90
18880;DHT22;9572;52.378;13.404;2024-03-08T14:53:36;10.90;99.90
18880;DHT22;9572;52.378;13.404;2024-03-08T14:56:06;10.70;99.90
18880;DHT22;9572;52.378;13.404;2024-03-08T14:58:33;10.60;99.90
18880;DHT22;9572;52.378;13.404;2024-03-08T15:01:01;10.70;99.90
18880;DHT22;9572;52.378;13.404;2024-03-08T15:03:28;10.60;99.90
18880;DHT22;9572;52.378;13.404;2024-03-08T15:05:55;10.50;99.90
18880;DHT22;9572;52.378;13.404;2024-03-08T15:08:22;10.40;99.90
18880;DHT22;9572;52.378;13.404;2024-03-08T15:10:50;10.20;99.90
18880;DHT22;9572;52.378;13.404;2024-03-08T15:13:19;10.20;99.90
18880;DHT22;9572;52.378;13.404;2024-03-08T15:15:48;10.00;99.90
18880;DHT22;9572;52.378;13.404;2024-03-08T15:18:22;9.90;99.90
18880;DHT22;9572;52.378;13.404;2024-03-08T15:20:51;9.70;99.90
18880;DHT22;9572;52.378;13.404;2024-03-08T15:23:18;9.50;99.90
18880;DHT22;9572;52.378;13.404;2024-03-08T15:25:46;9.40;99.90
18880;DHT22;9572;52.378;13.404;2024-03-08T15:28:14;9.30;99.90
18880;DHT22;9572;52.378;13.404;2024-03-08T15:30:43;9.40;99.90
18880;DHT22;9572;52.378;13.404;2024-03-08T15:33:12;9.30;99.90
18880;DHT22;9572;52.378;13.404;2024-03-08T15:35:42;9.30;99.90
18880;DHT22;9572;52.378;13.404;2024-03-08T15:38:13;9.30;99.90
18880;DHT22;9572;52.378;13.404;2024-03-08T15:40:40;9.20;99.90
18880;DHT22;9572;52.378;13.404;2024-03-08T15:43:07;9.10;99.90
18880;DHT22;9572;52.378;13.404;2024-03-08T15:45:34;9.00;99.90